sensor_id;sensor_type;location;lat;lon;timestamp;pressure;altitude;pressure_sealevel;temperature;humidity
43878;BME280;29815;48.184;11.268;2023-04-26T00:00:43;95490.81;;;4.60;100.00
43878;BME280;29815;48.184;11.268;2023-04-26T00:03:13;95491.50;;;4.56;100.00
43878;BME280;29815;48.184;11.268;2023-04-26T00:05:43;95497.53;;;4.51;100.00
43878;BME280;29815;48.184;11.268;2023-04-26T00:08:12;95491.16;;;4.52;100.00
43878;BME280;29815;48.184;11.268;2023-04-26T00:10:43;95488.72;;;4.51;100.00
43878;BME280;29815;48.184;11.268;2023-04-26T00:13:13;95492.66;;;4.48;100.00
43878;BME280;29815;48.184;11.268;2023-04-26T00:15:42;95497.19;;;4.48;100.00
43878;BME280;29815;48.184;11.268;2023-04-26T00:18:12;95494.28;;;4.49;100.00
43878;BME280;29815;48.184;11.268;2023-04-26T00:20:41;95487.91;;;4.50;100.00
43878;BME280;29815;48.184;11.268;2023-04-26T00:23:11;95492.78;;;4.53;100.00
43878;BME280;29815;48.184;11.268;2023-04-26T00:25:40;95496.16;;;4.49;100.00
43878;BME280;29815;48.184;11.268;2023-04-26T00:28:11;95487.00;;;4.56;100.00
43878;BME280;29815;48.184;11.268;2023-04-26T00:30:40;95486.19;;;4.56;100.00
43878;BME280;29815;48.184;11.268;2023-04-26T00:33:14;95495.00;;;4.56;100.00
43878;BME280;29815;48.184;11.268;2023-04-26T00:35:44;95486.41;;;4.54;100.00
43878;BME280;29815;48.184;11.268;2023-04-26T00:38:13;95494.75;;;4.58;100.00
43878;BME280;29815;48.184;11.268;2023-04-26T00:40:43;95495.34;;;4.60;100.00
43878;BME280;29815;48.184;11.268;2023-04-26T00:43:14;95501.13;;;4.57;100.00
43878;BME280;29815;48.184;11.268;2023-04-26T00:45:44;95500.66;;;4.60;100.00
43878;BME280;29815;48.184;11.268;2023-04-26T00:48:15;95493.47;;;4.60;100.00
43878;BME280;29815;48.184;11.268;2023-04-26T00:50:44;95489.91;;;4.55;100.00
43878;BME280;29815;48.184;11.268;2023-04-26T00:53:15;95502.88;;;4.51;100.00
43878;BME280;29815;48.184;11.268;2023-04-26T00:55:46;95500.44;;;4.50;100.00
43878;BME280;29815;48.184;11.268;2023-04-26T00:58:17;95500.09;;;4.46;100.00
43878;BME280;29815;48.184;11.268;2023-04-26T01:00:47;95498.13;;;4.41;100.00
43878;BME280;29815;48.184;11.268;2023-04-26T01:03:17;95498.69;;;4.43;100.00
43878;BME280;29815;48.184;11.268;2023-04-26T01:05:47;95501.00;;;4.40;100.00
43878;BME280;29815;48.184;11.268;2023-04-26T01:08:17;95503.91;;;4.38;100.00
43878;BME280;29815;48.184;11.268;2023-04-26T01:10:48;95501.72;;;4.35;100.00
43878;BME280;29815;48.184;11.268;2023-04-26T01:13:19;95504.63;;;4.34;100.00
43878;BME280;29815;48.184;11.268;2023-04-26T01:15:49;95501.72;;;4.35;100.00
43878;BME280;29815;48.184;11.268;2023-04-26T01:18:18;95497.09;;;4.31;100.00
43878;BME280;29815;48.184;11.268;2023-04-26T01:20:48;95505.09;;;4.31;100.00
43878;BME280;29815;48.184;11.268;2023-04-26T01:23:21;95511.81;;;4.33;100.00
43878;BME280;29815;48.184;11.268;2023-04-26T01:25:51;95511.34;;;4.36;100.00
43878;BME280;29815;48.184;11.268;2023-04-26T01:28:23;95510.31;;;4.37;100.00
43878;BME280;29815;48.184;11.268;2023-04-26T01:30:52;95512.72;;;4.39;100.00
43878;BME280;29815;48.184;11.268;2023-04-26T01:33:23;95512.63;;;4.34;100.00
43878;BME280;29815;48.184;11.268;2023-04-26T01:35:52;95512.84;;;4.32;100.00
43878;BME280;29815;48.184;11.268;2023-04-26T01:38:24;95523.72;;;4.31;100.00
43878;BME280;29815;48.184;11.268;2023-04-26T01:40:54;95518.41;;;4.31;100.00
43878;BME280;29815;48.184;11.268;2023-04-26T01:43:24;95519.22;;;4.31;100.00
43878;BME280;29815;48.184;11.268;2023-04-26T01:45:53;95518.41;;;4.31;100.00
43878;BME280;29815;48.184;11.268;2023-04-26T01:48:30;95518.06;;;4.27;100.00
43878;BME280;29815;48.184;11.268;2023-04-26T01:51:02;95519.22;;;4.31;100.00
43878;BME280;29815;48.184;11.268;2023-04-26T01:53:32;95522.91;;;4.30;100.00
43878;BME280;29815;48.184;11.268;2023-04-26T01:56:03;95518.88;;;4.28;100.00
43878;BME280;29815;48.184;11.268;2023-04-26T01:58:32;95517.25;;;4.27;100.00
43878;BME280;29815;48.184;11.268;2023-04-26T02:01:05;95516.75;;;4.18;100.00
43878;BME280;29815;48.184;11.268;2023-04-26T02:03:37;95512.47;;;4.17;100.00
43878;BME280;29815;48.184;11.268;2023-04-26T02:06:07;95518.72;;;4.11;100.00
43878;BME280;29815;48.184;11.268;2023-04-26T02:08:38;95520.69;;;4.04;100.00
43878;BME280;29815;48.184;11.268;2023-04-26T02:11:07;95517.81;;;4.05;100.00
43878;BME280;29815;48.184;11.268;2023-04-26T02:13:37;95512.13;;;4.02;100.00
43878;BME280;29815;48.184;11.268;2023-04-26T02:16:07;95519.53;;;4.00;100.00
43878;BME280;29815;48.184;11.268;2023-04-26T02:18:36;95521.75;;;4.03;100.00
43878;BME280;29815;48.184;11.268;2023-04-26T02:21:07;95522.19;;;4.00;100.00
43878;BME280;29815;48.184;11.268;2023-04-26T02:23:38;95523.22;;;3.99;100.00
43878;BME280;29815;48.184;11.268;2023-04-26T02:26:09;95521.59;;;3.98;100.00
43878;BME280;29815;48.184;11.268;2023-04-26T02:28:40;95523.09;;;3.94;100.00
43878;BME280;29815;48.184;11.268;2023-04-26T02:31:09;95518.94;;;3.98;100.00
43878;BME280;29815;48.184;11.268;2023-04-26T02:33:40;95516.50;;;3.96;100.00
43878;BME280;29815;48.184;11.268;2023-04-26T02:36:10;95517.69;;;4.00;100.00
43878;BME280;29815;48.184;11.268;2023-04-26T02:38:41;95516.75;;;3.95;100.00
43878;BME280;29815;48.184;11.268;2023-04-26T02:41:10;95515.03;;;4.00;100.00
43878;BME280;29815;48.184;11.268;2023-04-26T02:43:39;95511.19;;;3.96;100.00
43878;BME280;29815;48.184;11.268;2023-04-26T02:46:09;95514.75;;;3.90;100.00
43878;BME280;29815;48.184;11.268;2023-04-26T02:48:39;95504.34;;;3.89;100.00
43878;BME280;29815;48.184;11.268;2023-04-26T02:51:08;95512.56;;;3.87;100.00
43878;BME280;29815;48.184;11.268;2023-04-26T02:53:39;95505.38;;;3.88;100.00
43878;BME280;29815;48.184;11.268;2023-04-26T02:56:09;95499.47;;;3.86;100.00
43878;BME280;29815;48.184;11.268;2023-04-26T02:58:38;95496.94;;;3.91;100.00
43878;BME280;29815;48.184;11.268;2023-04-26T03:01:08;95501.22;;;3.92;100.00
43878;BME280;29815;48.184;11.268;2023-04-26T03:03:39;95503.28;;;3.90;100.00
43878;BME280;29815;48.184;11.268;2023-04-26T03:06:09;95505.38;;;3.88;100.00
43878;BME280;29815;48.184;11.268;2023-04-26T03:08:40;95508.50;;;3.85;100.00
43878;BME280;29815;48.184;11.268;2023-04-26T03:11:10;95505.16;;;3.89;100.00
43878;BME280;29815;48.184;11.268;2023-04-26T03:13:39;95510.25;;;3.91;100.00
43878;BME280;29815;48.184;11.268;2023-04-26T03:16:09;95506.41;;;3.87;100.00
43878;BME280;29815;48.184;11.268;2023-04-26T03:18:39;95503.97;;;3.85;100.00
43878;BME280;29815;48.184;11.268;2023-04-26T03:21:09;95503.53;;;3.88;100.00
43878;BME280;29815;48.184;11.268;2023-04-26T03:23:40;95510.34;;;3.84;100.00
43878;BME280;29815;48.184;11.268;2023-04-26T03:26:10;95509.66;;;3.77;100.00
43878;BME280;29815;48.184;11.268;2023-04-26T03:28:40;95508.03;;;3.76;100.00
43878;BME280;29815;48.184;11.268;2023-04-26T03:31:10;95516.03;;;3.76;100.00
43878;BME280;29815;48.184;11.268;2023-04-26T03:33:40;95510.09;;;3.74;100.00
43878;BME280;29815;48.184;11.268;2023-04-26T03:36:09;95517.28;;;3.73;100.00
43878;BME280;29815;48.184;11.268;2023-04-26T03:38:41;95520.97;;;3.72;100.00
43878;BME280;29815;48.184;11.268;2023-04-26T03:41:11;95516.47;;;3.73;100.00
43878;BME280;29815;48.184;11.268;2023-04-26T03:43:41;95517.88;;;3.76;100.00
43878;BME280;29815;48.184;11.268;2023-04-26T03:46:10;95511.72;;;3.75;100.00
43878;BME280;29815;48.184;11.268;2023-04-26T03:48:40;95511.72;;;3.75;100.00
43878;BME280;29815;48.184;11.268;2023-04-26T03:51:10;95520.97;;;3.72;100.00
43878;BME280;29815;48.184;11.268;2023-04-26T03:53:41;95516.56;;;3.66;100.00
43878;BME280;29815;48.184;11.268;2023-04-26T03:56:10;95511.31;;;3.60;100.00
43878;BME280;29815;48.184;11.268;2023-04-26T03:58:40;95519.09;;;3.61;100.00
43878;BME280;29815;48.184;11.268;2023-04-26T04:01:11;95523.22;;;3.57;100.00
43878;BME280;29815;48.184;11.268;2023-04-26T04:03:40;95530.75;;;3.60;100.00
43878;BME280;29815;48.184;11.268;2023-04-26T04:06:10;95529.72;;;3.61;100.00
43878;BME280;29815;48.184;11.268;2023-04-26T04:08:42;95536.31;;;3.59;100.00
43878;BME280;29815;48.184;11.268;2023-04-26T04:11:11;95526.72;;;3.58;100.00
43878;BME280;29815;48.184;11.268;2023-04-26T04:13:41;95526.03;;;3.62;100.00
43878;BME280;29815;48.184;11.268;2023-04-26T04:16:11;95528.00;;;3.67;100.00
43878;BME280;29815;48.184;11.268;2023-04-26T04:18:41;95529.50;;;3.63;100.00
43878;BME280;29815;48.184;11.268;2023-04-26T04:21:11;95534.38;;;3.66;100.00
43878;BME280;29815;48.184;11.268;2023-04-26T04:23:42;95539.13;;;3.64;100.00
43878;BME280;29815;48.184;11.268;2023-04-26T04:26:12;95535.63;;;3.63;100.00
43878;BME280;29815;48.184;11.268;2023-04-26T04:28:42;95534.16;;;3.67;100.00
43878;BME280;29815;48.184;11.268;2023-04-26T04:31:12;95546.41;;;3.68;100.00
43878;BME280;29815;48.184;11.268;2023-04-26T04:33:42;95543.41;;;3.65;100.00
43878;BME280;29815;48.184;11.268;2023-04-26T04:36:12;95546.06;;;3.65;100.00
43878;BME280;29815;48.184;11.268;2023-04-26T04:38:46;95547.78;;;3.59;100.00
43878;BME280;29815;48.184;11.268;2023-04-26T04:41:18;95550.66;;;3.58;100.00
43878;BME280;29815;48.184;11.268;2023-04-26T04:43:49;95551.47;;;3.58;100.00
43878;BME280;29815;48.184;11.268;2023-04-26T04:46:21;95547.53;;;3.61;100.00
43878;BME280;29815;48.184;11.268;2023-04-26T04:48:52;95559.44;;;3.58;100.00
43878;BME280;29815;48.184;11.268;2023-04-26T04:51:22;95552.50;;;3.57;100.00
43878;BME280;29815;48.184;11.268;2023-04-26T04:53:52;95558.63;;;3.58;100.00
43878;BME280;29815;48.184;11.268;2023-04-26T04:56:22;95563.97;;;3.58;100.00
43878;BME280;29815;48.184;11.268;2023-04-26T04:58:53;95564.44;;;3.55;100.00
43878;BME280;29815;48.184;11.268;2023-04-26T05:01:23;95568.84;;;3.61;100.00
43878;BME280;29815;48.184;11.268;2023-04-26T05:03:56;95577.63;;;3.61;100.00
43878;BME280;29815;48.184;11.268;2023-04-26T05:06:26;95576.81;;;3.61;100.00
43878;BME280;29815;48.184;11.268;2023-04-26T05:08:58;95571.13;;;3.57;100.00
43878;BME280;29815;48.184;11.268;2023-04-26T05:11:29;95559.59;;;3.63;100.00
43878;BME280;29815;48.184;11.268;2023-04-26T05:13:59;95574.16;;;3.61;100.00
43878;BME280;29815;48.184;11.268;2023-04-26T05:16:29;95563.06;;;3.64;100.00
43878;BME280;29815;48.184;11.268;2023-04-26T05:19:00;95569.66;;;3.61;100.00
43878;BME280;29815;48.184;11.268;2023-04-26T05:21:30;95568.53;;;3.69;100.00
43878;BME280;29815;48.184;11.268;2023-04-26T05:24:01;95575.03;;;3.73;100.00
43878;BME280;29815;48.184;11.268;2023-04-26T05:26:34;95578.88;;;3.77;100.00
43878;BME280;29815;48.184;11.268;2023-04-26T05:29:18;95575.16;;;3.78;100.00
43878;BME280;29815;48.184;11.268;2023-04-26T05:32:05;95576.44;;;3.87;100.00
43878;BME280;29815;48.184;11.268;2023-04-26T05:35:08;95575.53;;;3.93;100.00
43878;BME280;29815;48.184;11.268;2023-04-26T05:37:38;95574.06;;;3.97;100.00
43878;BME280;29815;48.184;11.268;2023-04-26T05:40:11;95583.56;;;4.05;100.00
43878;BME280;29815;48.184;11.268;2023-04-26T05:42:41;95581.28;;;4.08;100.00
43878;BME280;29815;48.184;11.268;2023-04-26T05:45:11;95588.47;;;4.20;100.00
43878;BME280;29815;48.184;11.268;2023-04-26T05:47:41;95579.44;;;4.21;100.00
43878;BME280;29815;48.184;11.268;2023-04-26T05:50:11;95586.16;;;4.23;100.00
43878;BME280;29815;48.184;11.268;2023-04-26T05:52:40;95585.69;;;4.26;100.00
43878;BME280;29815;48.184;11.268;2023-04-26T05:55:11;95581.41;;;4.25;100.00
43878;BME280;29815;48.184;11.268;2023-04-26T05:57:41;95594.59;;;4.20;100.00
43878;BME280;29815;48.184;11.268;2023-04-26T06:00:13;95593.09;;;4.24;100.00
43878;BME280;29815;48.184;11.268;2023-04-26T06:02:45;95596.81;;;4.23;100.00
43878;BME280;29815;48.184;11.268;2023-04-26T06:05:18;95603.31;;;4.27;100.00
43878;BME280;29815;48.184;11.268;2023-04-26T06:07:48;95602.50;;;4.27;100.00
43878;BME280;29815;48.184;11.268;2023-04-26T06:10:19;95602.16;;;4.35;100.00
43878;BME280;29815;48.184;11.268;2023-04-26T06:12:50;95594.28;;;4.40;100.00
43878;BME280;29815;48.184;11.268;2023-04-26T06:15:21;95600.75;;;4.44;100.00
43878;BME280;29815;48.184;11.268;2023-04-26T06:17:51;95599.63;;;4.52;100.00
43878;BME280;29815;48.184;11.268;2023-04-26T06:20:21;95596.63;;;4.60;100.00
43878;BME280;29815;48.184;11.268;2023-04-26T06:22:51;95594.16;;;4.70;100.00
43878;BME280;29815;48.184;11.268;2023-04-26T06:25:22;95596.28;;;4.80;100.00
43878;BME280;29815;48.184;11.268;2023-04-26T06:27:51;95594.66;;;4.90;100.00
43878;BME280;29815;48.184;11.268;2023-04-26T06:30:21;95597.78;;;4.87;100.00
43878;BME280;29815;48.184;11.268;2023-04-26T06:32:52;95605.56;;;4.89;100.00
43878;BME280;29815;48.184;11.268;2023-04-26T06:35:21;95613.09;;;4.92;100.00
43878;BME280;29815;48.184;11.268;2023-04-26T06:38:02;95609.47;;;4.98;100.00
43878;BME280;29815;48.184;11.268;2023-04-26T06:40:34;95607.38;;;5.12;100.00
43878;BME280;29815;48.184;11.268;2023-04-26T06:43:05;95608.44;;;5.10;100.00
43878;BME280;29815;48.184;11.268;2023-04-26T06:45:52;95615.16;;;5.13;100.00
43878;BME280;29815;48.184;11.268;2023-04-26T06:48:22;95611.44;;;5.14;100.00
43878;BME280;29815;48.184;11.268;2023-04-26T06:50:51;95622.13;;;5.14;100.00
43878;BME280;29815;48.184;11.268;2023-04-26T06:53:21;95613.72;;;5.22;100.00
43878;BME280;29815;48.184;11.268;2023-04-26T06:55:52;95610.25;;;5.33;100.00
43878;BME280;29815;48.184;11.268;2023-04-26T06:58:24;95606.97;;;5.43;100.00
43878;BME280;29815;48.184;11.268;2023-04-26T07:00:54;95615.03;;;5.60;100.00
43878;BME280;29815;48.184;11.268;2023-04-26T07:03:24;95607.72;;;5.67;100.00
43878;BME280;29815;48.184;11.268;2023-04-26T07:05:54;95614.38;;;5.81;100.00
43878;BME280;29815;48.184;11.268;2023-04-26T07:08:24;95617.63;;;5.95;100.00
43878;BME280;29815;48.184;11.268;2023-04-26T07:10:55;95606.53;;;6.03;100.00
43878;BME280;29815;48.184;11.268;2023-04-26T07:13:24;95606.94;;;5.95;100.00
43878;BME280;29815;48.184;11.268;2023-04-26T07:15:54;95618.91;;;5.92;100.00
43878;BME280;29815;48.184;11.268;2023-04-26T07:18:24;95613.00;;;5.90;100.00
43878;BME280;29815;48.184;11.268;2023-04-26T07:20:53;95613.66;;;5.86;100.00
43878;BME280;29815;48.184;11.268;2023-04-26T07:23:23;95613.81;;;5.91;100.00
43878;BME280;29815;48.184;11.268;2023-04-26T07:25:52;95614.47;;;5.86;100.00
43878;BME280;29815;48.184;11.268;2023-04-26T07:28:26;95614.63;;;5.91;100.00
43878;BME280;29815;48.184;11.268;2023-04-26T07:30:55;95618.78;;;5.99;100.00
43878;BME280;29815;48.184;11.268;2023-04-26T07:33:25;95623.13;;;6.05;100.00
43878;BME280;29815;48.184;11.268;2023-04-26T07:35:56;95605.00;;;6.07;100.00
43878;BME280;29815;48.184;11.268;2023-04-26T07:38:27;95620.09;;;6.13;100.00
43878;BME280;29815;48.184;11.268;2023-04-26T07:40:56;95614.50;;;6.15;100.00
43878;BME280;29815;48.184;11.268;2023-04-26T07:43:28;95610.88;;;6.21;100.00
43878;BME280;29815;48.184;11.268;2023-04-26T07:45:59;95607.06;;;6.33;100.00
43878;BME280;29815;48.184;11.268;2023-04-26T07:48:29;95610.50;;;6.45;100.00
43878;BME280;29815;48.184;11.268;2023-04-26T07:51:06;95617.94;;;6.43;100.00
43878;BME280;29815;48.184;11.268;2023-04-26T07:53:37;95621.84;;;6.53;100.00
43878;BME280;29815;48.184;11.268;2023-04-26T07:56:07;95610.91;;;6.71;100.00
43878;BME280;29815;48.184;11.268;2023-04-26T07:58:39;95620.94;;;6.81;100.00
43878;BME280;29815;48.184;11.268;2023-04-26T08:01:08;95610.53;;;6.84;100.00
43878;BME280;29815;48.184;11.268;2023-04-26T08:03:38;95615.84;;;6.79;100.00
43878;BME280;29815;48.184;11.268;2023-04-26T08:06:09;95611.47;;;6.73;100.00
43878;BME280;29815;48.184;11.268;2023-04-26T08:08:38;95604.56;;;6.77;100.00
43878;BME280;29815;48.184;11.268;2023-04-26T08:11:12;95612.94;;;6.81;100.00
43878;BME280;29815;48.184;11.268;2023-04-26T08:13:42;95609.25;;;6.87;100.00
43878;BME280;29815;48.184;11.268;2023-04-26T08:16:12;95611.75;;;6.93;100.00
43878;BME280;29815;48.184;11.268;2023-04-26T08:18:42;95610.63;;;7.06;100.00
43878;BME280;29815;48.184;11.268;2023-04-26T08:21:14;95612.50;;;7.27;100.00
43878;BME280;29815;48.184;11.268;2023-04-26T08:23:44;95612.84;;;7.31;100.00
43878;BME280;29815;48.184;11.268;2023-04-26T08:26:13;95607.81;;;7.34;100.00
43878;BME280;29815;48.184;11.268;2023-04-26T08:28:44;95608.72;;;7.45;100.00
43878;BME280;29815;48.184;11.268;2023-04-26T08:31:14;95609.09;;;7.54;100.00
43878;BME280;29815;48.184;11.268;2023-04-26T08:33:44;95600.09;;;7.60;100.00
43878;BME280;29815;48.184;11.268;2023-04-26T08:36:14;95607.66;;;7.68;100.00
43878;BME280;29815;48.184;11.268;2023-04-26T08:38:43;95608.47;;;7.90;100.00
43878;BME280;29815;48.184;11.268;2023-04-26T08:41:13;95599.94;;;8.20;100.00
43878;BME280;29815;48.184;11.268;2023-04-26T08:43:45;95602.19;;;8.06;100.00
43878;BME280;29815;48.184;11.268;2023-04-26T08:46:18;95604.75;;;8.18;100.00
43878;BME280;29815;48.184;11.268;2023-04-26T08:48:57;95602.94;;;8.29;100.00
43878;BME280;29815;48.184;11.268;2023-04-26T08:51:35;95608.75;;;8.42;100.00
43878;BME280;29815;48.184;11.268;2023-04-26T08:54:05;95604.72;;;8.40;100.00
43878;BME280;29815;48.184;11.268;2023-04-26T08:56:38;95608.41;;;8.34;100.00
43878;BME280;29815;48.184;11.268;2023-04-26T08:59:09;95608.66;;;8.32;100.00
43878;BME280;29815;48.184;11.268;2023-04-26T09:01:43;95611.94;;;8.39;100.00
43878;BME280;29815;48.184;11.268;2023-04-26T09:04:13;95607.22;;;8.52;100.00
43878;BME280;29815;48.184;11.268;2023-04-26T09:06:43;95604.63;;;8.62;100.00
43878;BME280;29815;48.184;11.268;2023-04-26T09:09:13;95611.59;;;8.63;100.00
43878;BME280;29815;48.184;11.268;2023-04-26T09:11:57;95604.22;;;8.48;100.00
43878;BME280;29815;48.184;11.268;2023-04-26T09:14:29;95605.25;;;8.42;100.00
43878;BME280;29815;48.184;11.268;2023-04-26T09:16:59;95615.28;;;8.30;100.00
43878;BME280;29815;48.184;11.268;2023-04-26T09:19:36;95608.81;;;8.26;100.00
43878;BME280;29815;48.184;11.268;2023-04-26T09:22:07;95606.53;;;8.34;100.00
43878;BME280;29815;48.184;11.268;2023-04-26T09:24:48;95606.38;;;8.46;100.00
43878;BME280;29815;48.184;11.268;2023-04-26T09:27:19;95600.72;;;8.42;100.00
43878;BME280;29815;48.184;11.268;2023-04-26T09:30:00;95608.28;;;8.51;100.00
43878;BME280;29815;48.184;11.268;2023-04-26T09:32:52;95602.50;;;8.64;100.00
43878;BME280;29815;48.184;11.268;2023-04-26T09:35:30;95602.03;;;8.72;100.00
43878;BME280;29815;48.184;11.268;2023-04-26T09:38:02;95597.47;;;8.72;100.00
43878;BME280;29815;48.184;11.268;2023-04-26T09:40:41;95601.47;;;8.70;100.00
43878;BME280;29815;48.184;11.268;2023-04-26T09:43:13;95604.19;;;8.75;100.00
43878;BME280;29815;48.184;11.268;2023-04-26T09:45:47;95593.00;;;8.88;100.00
43878;BME280;29815;48.184;11.268;2023-04-26T09:48:23;95603.28;;;8.96;100.00
43878;BME280;29815;48.184;11.268;2023-04-26T09:50:57;95610.72;;;9.31;100.00
43878;BME280;29815;48.184;11.268;2023-04-26T09:53:29;95607.09;;;9.53;100.00
43878;BME280;29815;48.184;11.268;2023-04-26T09:56:11;95601.50;;;9.64;100.00
43878;BME280;29815;48.184;11.268;2023-04-26T09:58:57;95604.50;;;9.78;100.00
43878;BME280;29815;48.184;11.268;2023-04-26T10:01:30;95595.91;;;9.86;100.00
43878;BME280;29815;48.184;11.268;2023-04-26T10:04:02;95590.84;;;9.84;100.00
43878;BME280;29815;48.184;11.268;2023-04-26T10:06:32;95590.28;;;9.82;100.00
43878;BME280;29815;48.184;11.268;2023-04-26T10:09:02;95593.00;;;9.98;100.00
43878;BME280;29815;48.184;11.268;2023-04-26T10:11:34;95589.28;;;10.09;100.00
43878;BME280;29815;48.184;11.268;2023-04-26T10:14:05;95583.16;;;10.24;100.00
43878;BME280;29815;48.184;11.268;2023-04-26T10:16:37;95578.06;;;10.32;100.00
43878;BME280;29815;48.184;11.268;2023-04-26T10:19:07;95578.31;;;10.31;100.00
43878;BME280;29815;48.184;11.268;2023-04-26T10:21:37;95573.75;;;10.31;100.00
43878;BME280;29815;48.184;11.268;2023-04-26T10:24:07;95564.28;;;10.18;100.00
43878;BME280;29815;48.184;11.268;2023-04-26T10:26:49;95562.13;;;10.05;100.00
43878;BME280;29815;48.184;11.268;2023-04-26T10:29:20;95559.66;;;9.94;100.00
43878;BME280;29815;48.184;11.268;2023-04-26T10:32:08;95562.13;;;10.15;100.00
43878;BME280;29815;48.184;11.268;2023-04-26T10:34:39;95558.16;;;10.33;100.00
43878;BME280;29815;48.184;11.268;2023-04-26T10:37:10;95563.00;;;10.46;100.00
43878;BME280;29815;48.184;11.268;2023-04-26T10:39:42;95555.72;;;10.52;100.00
43878;BME280;29815;48.184;11.268;2023-04-26T10:42:24;95553.28;;;10.81;100.00
43878;BME280;29815;48.184;11.268;2023-04-26T10:44:55;95555.94;;;11.06;100.00
43878;BME280;29815;48.184;11.268;2023-04-26T10:47:32;95549.97;;;11.25;95.13
43878;BME280;29815;48.184;11.268;2023-04-26T10:50:06;95554.53;;;11.29;100.00
43878;BME280;29815;48.184;11.268;2023-04-26T10:53:04;95546.78;;;11.07;81.93
43878;BME280;29815;48.184;11.268;2023-04-26T10:55:39;95546.84;;;10.92;86.67
43878;BME280;29815;48.184;11.268;2023-04-26T10:58:26;95542.78;;;10.84;89.74
43878;BME280;29815;48.184;11.268;2023-04-26T11:01:04;95543.91;;;10.63;94.22
43878;BME280;29815;48.184;11.268;2023-04-26T11:03:34;95534.72;;;10.84;98.87
43878;BME280;29815;48.184;11.268;2023-04-26T11:06:06;95537.84;;;11.27;97.56
43878;BME280;29815;48.184;11.268;2023-04-26T11:08:38;95536.66;;;11.59;91.79
43878;BME280;29815;48.184;11.268;2023-04-26T11:11:10;95527.75;;;11.63;85.58
43878;BME280;29815;48.184;11.268;2023-04-26T11:13:42;95524.66;;;11.90;85.62
43878;BME280;29815;48.184;11.268;2023-04-26T11:16:13;95518.28;;;12.20;89.95
43878;BME280;29815;48.184;11.268;2023-04-26T11:18:46;95520.69;;;12.22;79.23
43878;BME280;29815;48.184;11.268;2023-04-26T11:21:15;95523.84;;;11.95;77.94
43878;BME280;29815;48.184;11.268;2023-04-26T11:23:54;95521.63;;;11.47;80.89
43878;BME280;29815;48.184;11.268;2023-04-26T11:26:31;95514.84;;;11.50;77.30
43878;BME280;29815;48.184;11.268;2023-04-26T11:29:02;95516.06;;;11.18;82.25
43878;BME280;29815;48.184;11.268;2023-04-26T11:31:31;95519.06;;;11.02;80.10
43878;BME280;29815;48.184;11.268;2023-04-26T11:34:08;95517.44;;;10.96;80.01
43878;BME280;29815;48.184;11.268;2023-04-26T11:36:37;95511.28;;;10.85;79.68
43878;BME280;29815;48.184;11.268;2023-04-26T11:39:08;95516.94;;;10.89;84.83
43878;BME280;29815;48.184;11.268;2023-04-26T11:41:41;95513.38;;;11.13;90.67
43878;BME280;29815;48.184;11.268;2023-04-26T11:44:11;95504.97;;;11.30;87.14
43878;BME280;29815;48.184;11.268;2023-04-26T11:46:41;95514.25;;;11.68;79.78
43878;BME280;29815;48.184;11.268;2023-04-26T11:49:10;95508.03;;;11.73;78.39
43878;BME280;29815;48.184;11.268;2023-04-26T11:51:40;95526.09;;;11.72;82.65
43878;BME280;29815;48.184;11.268;2023-04-26T11:54:26;95519.31;;;11.80;84.20
43878;BME280;29815;48.184;11.268;2023-04-26T11:56:57;95520.16;;;12.19;86.25
43878;BME280;29815;48.184;11.268;2023-04-26T11:59:29;95513.97;;;12.19;70.76
43878;BME280;29815;48.184;11.268;2023-04-26T12:02:04;95520.31;;;11.99;74.76
43878;BME280;29815;48.184;11.268;2023-04-26T12:04:36;95522.28;;;11.83;75.21
43878;BME280;29815;48.184;11.268;2023-04-26T12:07:06;95518.53;;;11.74;76.72
43878;BME280;29815;48.184;11.268;2023-04-26T12:09:40;95533.66;;;11.65;86.21
43878;BME280;29815;48.184;11.268;2023-04-26T12:12:10;95532.00;;;11.74;77.70
43878;BME280;29815;48.184;11.268;2023-04-26T12:14:40;95536.09;;;11.62;82.17
43878;BME280;29815;48.184;11.268;2023-04-26T12:17:09;95527.56;;;11.44;78.88
43878;BME280;29815;48.184;11.268;2023-04-26T12:19:40;95531.09;;;11.30;77.37
43878;BME280;29815;48.184;11.268;2023-04-26T12:22:10;95530.28;;;11.29;76.78
43878;BME280;29815;48.184;11.268;2023-04-26T12:24:41;95523.53;;;11.37;79.39
43878;BME280;29815;48.184;11.268;2023-04-26T12:27:21;95526.09;;;11.72;77.46
43878;BME280;29815;48.184;11.268;2023-04-26T12:29:51;95515.84;;;12.18;77.49
43878;BME280;29815;48.184;11.268;2023-04-26T12:32:21;95517.25;;;12.11;74.41
43878;BME280;29815;48.184;11.268;2023-04-26T12:34:50;95507.22;;;12.16;71.62
43878;BME280;29815;48.184;11.268;2023-04-26T12:37:20;95511.81;;;12.55;72.11
43878;BME280;29815;48.184;11.268;2023-04-26T12:39:51;95505.69;;;12.73;69.63
43878;BME280;29815;48.184;11.268;2023-04-26T12:42:20;95509.03;;;12.89;71.69
43878;BME280;29815;48.184;11.268;2023-04-26T12:44:50;95503.16;;;13.11;71.20
43878;BME280;29815;48.184;11.268;2023-04-26T12:47:20;95501.63;;;13.29;67.44
43878;BME280;29815;48.184;11.268;2023-04-26T12:49:50;95499.72;;;12.76;64.17
43878;BME280;29815;48.184;11.268;2023-04-26T12:52:20;95492.09;;;12.83;64.17
43878;BME280;29815;48.184;11.268;2023-04-26T12:54:51;95481.16;;;13.23;62.57
43878;BME280;29815;48.184;11.268;2023-04-26T12:57:21;95486.31;;;13.67;63.09
43878;BME280;29815;48.184;11.268;2023-04-26T12:59:50;95474.34;;;13.92;57.60
43878;BME280;29815;48.184;11.268;2023-04-26T13:02:19;95471.31;;;14.12;59.39
43878;BME280;29815;48.184;11.268;2023-04-26T13:04:50;95474.22;;;14.34;60.01
43878;BME280;29815;48.184;11.268;2023-04-26T13:07:20;95474.66;;;14.22;60.03
43878;BME280;29815;48.184;11.268;2023-04-26T13:09:50;95483.59;;;14.04;58.12
43878;BME280;29815;48.184;11.268;2023-04-26T13:12:20;95462.41;;;14.11;59.60